sensor_id;sensor_type;location;lat;lon;timestamp;pressure;altitude;pressure_sealevel;temperature
29701;BMP280;57917;51.380;-0.176;2023-10-09T00:00:15;101924.34;;;18.14
29701;BMP280;57917;51.380;-0.176;2023-10-09T00:06:17;101915.31;;;17.97
29701;BMP280;57917;51.380;-0.176;2023-10-09T00:12:10;101905.56;;;17.87
29701;BMP280;57917;51.380;-0.176;2023-10-09T00:17:57;101909.34;;;18.00
29701;BMP280;57917;51.380;-0.176;2023-10-09T00:23:46;101912.72;;;18.05
29701;BMP280;57917;51.380;-0.176;2023-10-09T00:29:40;101917.28;;;18.05
29701;BMP280;57917;51.380;-0.176;2023-10-09T00:35:38;101919.19;;;18.04
29701;BMP280;57917;51.380;-0.176;2023-10-09T00:41:31;101918.47;;;17.99
29701;BMP280;57917;51.380;-0.176;2023-10-09T00:47:22;101906.47;;;17.83
29701;BMP280;57917;51.380;-0.176;2023-10-09T00:53:30;101893.47;;;17.90
29701;BMP280;57917;51.380;-0.176;2023-10-09T00:59:19;101893.25;;;17.73
29701;BMP280;57917;51.380;-0.176;2023-10-09T01:05:08;101894.25;;;17.77
29701;BMP280;57917;51.380;-0.176;2023-10-09T01:11:13;101897.63;;;17.82
29701;BMP280;57917;51.380;-0.176;2023-10-09T01:17:09;101891.75;;;17.67
29701;BMP280;57917;51.380;-0.176;2023-10-09T01:23:00;101895.22;;;17.67
29701;BMP280;57917;51.380;-0.176;2023-10-09T01:28:47;101897.28;;;17.57
29701;BMP280;57917;51.380;-0.176;2023-10-09T01:34:35;101887.63;;;17.56
29701;BMP280;57917;51.380;-0.176;2023-10-09T01:40:28;101890.84;;;17.58
29701;BMP280;57917;51.380;-0.176;2023-10-09T01:46:23;101883.09;;;17.56
29701;BMP280;57917;51.380;-0.176;2023-10-09T01:52:10;101886.16;;;17.50
29701;BMP280;57917;51.380;-0.176;2023-10-09T01:58:04;101873.78;;;17.54
29701;BMP280;57917;51.380;-0.176;2023-10-09T02:04:23;101874.56;;;17.54
29701;BMP280;57917;51.380;-0.176;2023-10-09T02:10:11;101863.63;;;17.51
29701;BMP280;57917;51.380;-0.176;2023-10-09T02:16:10;101849.56;;;17.45
29701;BMP280;57917;51.380;-0.176;2023-10-09T02:22:01;101846.19;;;17.40
29701;BMP280;57917;51.380;-0.176;2023-10-09T02:27:59;101844.69;;;17.34
29701;BMP280;57917;51.380;-0.176;2023-10-09T02:33:46;101838.63;;;17.42
29701;BMP280;57917;51.380;-0.176;2023-10-09T02:39:32;101834.03;;;17.29
29701;BMP280;57917;51.380;-0.176;2023-10-09T02:45:34;101834.13;;;17.24
29701;BMP280;57917;51.380;-0.176;2023-10-09T02:51:23;101839.22;;;17.25
29701;BMP280;57917;51.380;-0.176;2023-10-09T02:57:13;101818.97;;;17.33
29701;BMP280;57917;51.380;-0.176;2023-10-09T03:03:10;101820.50;;;17.07
29701;BMP280;57917;51.380;-0.176;2023-10-09T03:08:57;101814.97;;;17.17
29701;BMP280;57917;51.380;-0.176;2023-10-09T03:14:44;101810.19;;;17.14
29701;BMP280;57917;51.380;-0.176;2023-10-09T03:20:31;101804.44;;;17.07
29701;BMP280;57917;51.380;-0.176;2023-10-09T03:26:18;101799.31;;;16.92
29701;BMP280;57917;51.380;-0.176;2023-10-09T03:32:07;101801.72;;;16.93
29701;BMP280;57917;51.380;-0.176;2023-10-09T03:37:57;101804.03;;;17.00
29701;BMP280;57917;51.380;-0.176;2023-10-09T03:43:47;101808.94;;;16.93
29701;BMP280;57917;51.380;-0.176;2023-10-09T03:49:34;101790.31;;;17.01
29701;BMP280;57917;51.380;-0.176;2023-10-09T03:55:21;101787.97;;;17.00
29701;BMP280;57917;51.380;-0.176;2023-10-09T04:01:22;101786.16;;;16.95
29701;BMP280;57917;51.380;-0.176;2023-10-09T04:07:14;101787.69;;;16.83
29701;BMP280;57917;51.380;-0.176;2023-10-09T04:13:04;101784.31;;;16.96
29701;BMP280;57917;51.380;-0.176;2023-10-09T04:18:57;101801.28;;;16.68
29701;BMP280;57917;51.380;-0.176;2023-10-09T04:24:46;101805.88;;;16.67
29701;BMP280;57917;51.380;-0.176;2023-10-09T04:30:41;101804.34;;;16.80
29701;BMP280;57917;51.380;-0.176;2023-10-09T04:36:34;101806.13;;;16.84
29701;BMP280;57917;51.380;-0.176;2023-10-09T04:42:33;101804.56;;;16.83
29701;BMP280;57917;51.380;-0.176;2023-10-09T04:48:23;101808.91;;;16.79
29701;BMP280;57917;51.380;-0.176;2023-10-09T04:54:25;101795.06;;;16.72
29701;BMP280;57917;51.380;-0.176;2023-10-09T05:00:26;101783.97;;;16.47
29701;BMP280;57917;51.380;-0.176;2023-10-09T05:06:14;101783.03;;;16.56
29701;BMP280;57917;51.380;-0.176;2023-10-09T05:12:07;101784.19;;;16.50
29701;BMP280;57917;51.380;-0.176;2023-10-09T05:18:02;101793.38;;;16.44
29701;BMP280;57917;51.380;-0.176;2023-10-09T05:23:59;101786.50;;;16.57
29701;BMP280;57917;51.380;-0.176;2023-10-09T05:29:58;101794.53;;;16.38
29701;BMP280;57917;51.380;-0.176;2023-10-09T05:36:08;101814.22;;;16.23
29701;BMP280;57917;51.380;-0.176;2023-10-09T05:42:18;101826.78;;;16.42
29701;BMP280;57917;51.380;-0.176;2023-10-09T05:48:15;101830.06;;;16.15
29701;BMP280;57917;51.380;-0.176;2023-10-09T05:54:02;101847.81;;;16.29
29701;BMP280;57917;51.380;-0.176;2023-10-09T06:00:10;101817.00;;;16.13
29701;BMP280;57917;51.380;-0.176;2023-10-09T06:06:16;101807.38;;;16.36
29701;BMP280;57917;51.380;-0.176;2023-10-09T06:12:23;101825.97;;;16.22
29701;BMP280;57917;51.380;-0.176;2023-10-09T06:18:19;101789.56;;;16.26
29701;BMP280;57917;51.380;-0.176;2023-10-09T06:24:22;101834.16;;;16.07
29701;BMP280;57917;51.380;-0.176;2023-10-09T06:30:10;101834.88;;;16.36
29701;BMP280;57917;51.380;-0.176;2023-10-09T06:36:16;101838.63;;;16.35
29701;BMP280;57917;51.380;-0.176;2023-10-09T06:42:06;101822.06;;;16.76
29701;BMP280;57917;51.380;-0.176;2023-10-09T06:47:58;101848.66;;;16.86
29701;BMP280;57917;51.380;-0.176;2023-10-09T06:54:14;101813.25;;;17.07
29701;BMP280;57917;51.380;-0.176;2023-10-09T07:00:05;101834.69;;;17.53
29701;BMP280;57917;51.380;-0.176;2023-10-09T07:06:11;101853.41;;;17.53
29701;BMP280;57917;51.380;-0.176;2023-10-09T07:12:19;101847.81;;;17.95
29701;BMP280;57917;51.380;-0.176;2023-10-09T07:18:14;101853.97;;;18.44
29701;BMP280;57917;51.380;-0.176;2023-10-09T07:24:10;101856.28;;;19.17
29701;BMP280;57917;51.380;-0.176;2023-10-09T07:30:04;101843.03;;;19.51
29701;BMP280;57917;51.380;-0.176;2023-10-09T07:36:15;101825.53;;;19.23
29701;BMP280;57917;51.380;-0.176;2023-10-09T07:42:04;101847.78;;;18.93
29701;BMP280;57917;51.380;-0.176;2023-10-09T07:48:20;101843.22;;;18.58
29701;BMP280;57917;51.380;-0.176;2023-10-09T07:54:15;101864.84;;;18.26
29701;BMP280;57917;51.380;-0.176;2023-10-09T08:00:22;101877.94;;;18.41
29701;BMP280;57917;51.380;-0.176;2023-10-09T08:06:45;101868.38;;;18.62
29701;BMP280;57917;51.380;-0.176;2023-10-09T08:12:54;101895.34;;;18.79
29701;BMP280;57917;51.380;-0.176;2023-10-09T08:19:06;101913.41;;;18.87
29701;BMP280;57917;51.380;-0.176;2023-10-09T08:25:13;101936.00;;;18.59
29701;BMP280;57917;51.380;-0.176;2023-10-09T08:31:15;101922.53;;;18.86
29701;BMP280;57917;51.380;-0.176;2023-10-09T08:37:06;101924.75;;;18.84
29701;BMP280;57917;51.380;-0.176;2023-10-09T08:43:14;101916.41;;;19.08
29701;BMP280;57917;51.380;-0.176;2023-10-09T08:49:03;101892.28;;;19.16
29701;BMP280;57917;51.380;-0.176;2023-10-09T08:54:55;101896.41;;;19.44
29701;BMP280;57917;51.380;-0.176;2023-10-09T09:00:43;101931.72;;;19.29
29701;BMP280;57917;51.380;-0.176;2023-10-09T09:06:37;101911.13;;;19.47
29701;BMP280;57917;51.380;-0.176;2023-10-09T09:12:30;101893.63;;;19.49
29701;BMP280;57917;51.380;-0.176;2023-10-09T09:18:24;101894.47;;;19.36
29701;BMP280;57917;51.380;-0.176;2023-10-09T09:24:18;101909.59;;;19.54
29701;BMP280;57917;51.380;-0.176;2023-10-09T09:30:22;101916.72;;;20.06
29701;BMP280;57917;51.380;-0.176;2023-10-09T09:36:10;101891.50;;;20.50
29701;BMP280;57917;51.380;-0.176;2023-10-09T09:42:01;101891.19;;;20.85
29701;BMP280;57917;51.380;-0.176;2023-10-09T09:47:54;101918.28;;;20.55
29701;BMP280;57917;51.380;-0.176;2023-10-09T09:53:46;101906.25;;;20.86
29701;BMP280;57917;51.380;-0.176;2023-10-09T09:59:38;101902.56;;;21.08
29701;BMP280;57917;51.380;-0.176;2023-10-09T10:05:37;101922.16;;;21.34
29701;BMP280;57917;51.380;-0.176;2023-10-09T10:17:31;101906.91;;;22.13
29701;BMP280;57917;51.380;-0.176;2023-10-09T10:23:19;101906.97;;;22.46
29701;BMP280;57917;51.380;-0.176;2023-10-09T10:29:20;101910.06;;;22.36
29701;BMP280;57917;51.380;-0.176;2023-10-09T10:35:13;101903.28;;;22.83
29701;BMP280;57917;51.380;-0.176;2023-10-09T10:41:16;101885.72;;;22.77
29701;BMP280;57917;51.380;-0.176;2023-10-09T10:47:05;101887.47;;;23.05
29701;BMP280;57917;51.380;-0.176;2023-10-09T10:52:52;101891.28;;;23.61
29701;BMP280;57917;51.380;-0.176;2023-10-09T10:58:54;101869.22;;;23.98
29701;BMP280;57917;51.380;-0.176;2023-10-09T11:04:51;101865.34;;;23.72
29701;BMP280;57917;51.380;-0.176;2023-10-09T11:11:13;101851.50;;;23.49
29701;BMP280;57917;51.380;-0.176;2023-10-09T11:17:03;101849.56;;;23.62
29701;BMP280;57917;51.380;-0.176;2023-10-09T11:23:10;101853.75;;;24.11
29701;BMP280;57917;51.380;-0.176;2023-10-09T11:29:14;101856.47;;;24.38
29701;BMP280;57917;51.380;-0.176;2023-10-09T11:35:16;101857.88;;;24.63
29701;BMP280;57917;51.380;-0.176;2023-10-09T11:41:25;101861.06;;;24.65
29701;BMP280;57917;51.380;-0.176;2023-10-09T11:47:13;101842.03;;;24.93
29701;BMP280;57917;51.380;-0.176;2023-10-09T11:53:06;101849.44;;;24.80
29701;BMP280;57917;51.380;-0.176;2023-10-09T11:58:58;101835.91;;;24.96
29701;BMP280;57917;51.380;-0.176;2023-10-09T12:04:51;101831.50;;;23.78
29701;BMP280;57917;51.380;-0.176;2023-10-09T12:10:41;101836.81;;;24.57
29701;BMP280;57917;51.380;-0.176;2023-10-09T12:16:28;101826.22;;;24.21
29701;BMP280;57917;51.380;-0.176;2023-10-09T12:22:16;101827.03;;;24.37
29701;BMP280;57917;51.380;-0.176;2023-10-09T12:28:03;101829.69;;;24.80
29701;BMP280;57917;51.380;-0.176;2023-10-09T12:33:50;101814.75;;;25.01
29701;BMP280;57917;51.380;-0.176;2023-10-09T12:39:49;101805.41;;;24.99
29701;BMP280;57917;51.380;-0.176;2023-10-09T12:45:48;101783.91;;;24.44
29701;BMP280;57917;51.380;-0.176;2023-10-09T12:51:43;101773.97;;;24.79
29701;BMP280;57917;51.380;-0.176;2023-10-09T12:58:48;101766.84;;;25.05
29701;BMP280;57917;51.380;-0.176;2023-10-09T13:05:02;101760.13;;;24.84
29701;BMP280;57917;51.380;-0.176;2023-10-09T13:10:53;101750.84;;;25.16
29701;BMP280;57917;51.380;-0.176;2023-10-09T13:16:48;101754.84;;;25.22
29701;BMP280;57917;51.380;-0.176;2023-10-09T13:22:37;101767.00;;;25.47
29701;BMP280;57917;51.380;-0.176;2023-10-09T13:28:28;101769.84;;;25.54
29701;BMP280;57917;51.380;-0.176;2023-10-09T13:34:16;101774.94;;;25.55
29701;BMP280;57917;51.380;-0.176;2023-10-09T13:40:06;101776.25;;;25.27
29701;BMP280;57917;51.380;-0.176;2023-10-09T13:45:56;101778.38;;;25.02
29701;BMP280;57917;51.380;-0.176;2023-10-09T13:51:44;101772.97;;;24.87
29701;BMP280;57917;51.380;-0.176;2023-10-09T13:57:31;101770.97;;;24.99
29701;BMP280;57917;51.380;-0.176;2023-10-09T14:03:18;101765.69;;;25.22
29701;BMP280;57917;51.380;-0.176;2023-10-09T14:09:11;101758.59;;;25.17
29701;BMP280;57917;51.380;-0.176;2023-10-09T14:15:15;101752.84;;;24.26
29701;BMP280;57917;51.380;-0.176;2023-10-09T14:21:04;101752.75;;;23.79
29701;BMP280;57917;51.380;-0.176;2023-10-09T14:26:51;101737.47;;;24.14
29701;BMP280;57917;51.380;-0.176;2023-10-09T14:32:42;101739.97;;;24.50
29701;BMP280;57917;51.380;-0.176;2023-10-09T14:38:38;101747.41;;;24.69
29701;BMP280;57917;51.380;-0.176;2023-10-09T14:44:28;101746.50;;;24.34
29701;BMP280;57917;51.380;-0.176;2023-10-09T14:50:17;101747.59;;;24.02
29701;BMP280;57917;51.380;-0.176;2023-10-09T14:56:08;101758.25;;;23.83
29701;BMP280;57917;51.380;-0.176;2023-10-09T15:01:56;101742.84;;;24.26
29701;BMP280;57917;51.380;-0.176;2023-10-09T15:07:46;101748.28;;;24.42
29701;BMP280;57917;51.380;-0.176;2023-10-09T15:13:33;101741.03;;;24.61
29701;BMP280;57917;51.380;-0.176;2023-10-09T15:19:20;101722.56;;;24.67
29701;BMP280;57917;51.380;-0.176;2023-10-09T15:25:28;101722.56;;;24.67
29701;BMP280;57917;51.380;-0.176;2023-10-09T15:31:17;101722.69;;;24.39
29701;BMP280;57917;51.380;-0.176;2023-10-09T15:37:09;101711.94;;;24.43
29701;BMP280;57917;51.380;-0.176;2023-10-09T15:42:57;101711.84;;;24.24
29701;BMP280;57917;51.380;-0.176;2023-10-09T15:48:48;101726.66;;;24.14
29701;BMP280;57917;51.380;-0.176;2023-10-09T15:54:43;101721.19;;;24.26
29701;BMP280;57917;51.380;-0.176;2023-10-09T16:00:30;101728.78;;;24.21
29701;BMP280;57917;51.380;-0.176;2023-10-09T16:06:23;101720.75;;;24.24
29701;BMP280;57917;51.380;-0.176;2023-10-09T16:12:13;101725.97;;;24.17
29701;BMP280;57917;51.380;-0.176;2023-10-09T16:18:00;101723.91;;;23.99
29701;BMP280;57917;51.380;-0.176;2023-10-09T16:23:53;101722.69;;;23.96
29701;BMP280;57917;51.380;-0.176;2023-10-09T16:29:46;101722.59;;;23.93
29701;BMP280;57917;51.380;-0.176;2023-10-09T16:35:37;101734.56;;;23.80
29701;BMP280;57917;51.380;-0.176;2023-10-09T16:41:27;101733.38;;;23.77
29701;BMP280;57917;51.380;-0.176;2023-10-09T16:47:14;101732.94;;;23.63
29701;BMP280;57917;51.380;-0.176;2023-10-09T16:53:13;101738.06;;;23.53
29701;BMP280;57917;51.380;-0.176;2023-10-09T16:59:01;101736.97;;;23.42
29701;BMP280;57917;51.380;-0.176;2023-10-09T17:04:52;101741.94;;;23.16
29701;BMP280;57917;51.380;-0.176;2023-10-09T17:11:13;101745.81;;;23.03
29701;BMP280;57917;51.380;-0.176;2023-10-09T17:17:01;101738.94;;;22.81
29701;BMP280;57917;51.380;-0.176;2023-10-09T17:22:56;101728.22;;;22.85
29701;BMP280;57917;51.380;-0.176;2023-10-09T17:28:47;101736.50;;;22.56
29701;BMP280;57917;51.380;-0.176;2023-10-09T17:34:34;101742.81;;;22.48
29701;BMP280;57917;51.380;-0.176;2023-10-09T17:40:24;101733.94;;;22.27
29701;BMP280;57917;51.380;-0.176;2023-10-09T17:46:15;101749.66;;;22.13
29701;BMP280;57917;51.380;-0.176;2023-10-09T17:52:02;101741.56;;;22.13
29701;BMP280;57917;51.380;-0.176;2023-10-09T17:57:55;101744.00;;;22.05
29701;BMP280;57917;51.380;-0.176;2023-10-09T18:03:43;101743.59;;;21.95
29701;BMP280;57917;51.380;-0.176;2023-10-09T18:09:31;101748.09;;;21.70
29701;BMP280;57917;51.380;-0.176;2023-10-09T18:15:20;101750.06;;;21.61
29701;BMP280;57917;51.380;-0.176;2023-10-09T18:21:15;101748.88;;;21.50
29701;BMP280;57917;51.380;-0.176;2023-10-09T18:27:07;101759.06;;;21.36
29701;BMP280;57917;51.380;-0.176;2023-10-09T18:32:54;101746.63;;;21.23
29701;BMP280;57917;51.380;-0.176;2023-10-09T18:38:46;101742.72;;;21.12
29701;BMP280;57917;51.380;-0.176;2023-10-09T18:44:38;101746.91;;;21.01
29701;BMP280;57917;51.380;-0.176;2023-10-09T18:50:28;101742.66;;;20.92
29701;BMP280;57917;51.380;-0.176;2023-10-09T18:56:17;101744.75;;;20.86
29701;BMP280;57917;51.380;-0.176;2023-10-09T19:02:07;101742.38;;;20.76
29701;BMP280;57917;51.380;-0.176;2023-10-09T19:07:57;101735.91;;;20.60
29701;BMP280;57917;51.380;-0.176;2023-10-09T19:13:46;101731.56;;;20.47
29701;BMP280;57917;51.380;-0.176;2023-10-09T19:19:37;101734.09;;;20.35
29701;BMP280;57917;51.380;-0.176;2023-10-09T19:25:25;101723.63;;;20.42
29701;BMP280;57917;51.380;-0.176;2023-10-09T19:31:24;101729.03;;;20.34
29701;BMP280;57917;51.380;-0.176;2023-10-09T19:37:14;101739.78;;;20.42
29701;BMP280;57917;51.380;-0.176;2023-10-09T19:43:03;101724.44;;;20.34
29701;BMP280;57917;51.380;-0.176;2023-10-09T19:48:53;101727.47;;;20.24
29701;BMP280;57917;51.380;-0.176;2023-10-09T19:54:41;101731.41;;;20.27
29701;BMP280;57917;51.380;-0.176;2023-10-09T20:00:32;101728.53;;;20.40
29701;BMP280;57917;51.380;-0.176;2023-10-09T20:06:21;101721.63;;;20.31
29701;BMP280;57917;51.380;-0.176;2023-10-09T20:12:15;101724.78;;;20.16
29701;BMP280;57917;51.380;-0.176;2023-10-09T20:18:11;101720.81;;;19.96
29701;BMP280;57917;51.380;-0.176;2023-10-09T20:24:00;101731.72;;;19.83
29701;BMP280;57917;51.380;-0.176;2023-10-09T20:29:47;101739.91;;;19.69
29701;BMP280;57917;51.380;-0.176;2023-10-09T20:35:37;101752.22;;;19.62
29701;BMP280;57917;51.380;-0.176;2023-10-09T20:41:26;101755.50;;;19.50
29701;BMP280;57917;51.380;-0.176;2023-10-09T20:47:15;101756.75;;;19.44
29701;BMP280;57917;51.380;-0.176;2023-10-09T20:53:02;101754.72;;;19.41
29701;BMP280;57917;51.380;-0.176;2023-10-09T20:58:53;101769.84;;;19.29
29701;BMP280;57917;51.380;-0.176;2023-10-09T21:04:41;101770.88;;;19.19
29701;BMP280;57917;51.380;-0.176;2023-10-09T21:10:30;101764.69;;;19.10
29701;BMP280;57917;51.380;-0.176;2023-10-09T21:16:19;101761.97;;;19.02
29701;BMP280;57917;51.380;-0.176;2023-10-09T21:29:37;101758.84;;;18.86
29701;BMP280;57917;51.380;-0.176;2023-10-09T21:35:28;101760.09;;;18.80
29701;BMP280;57917;51.380;-0.176;2023-10-09T21:41:31;101755.66;;;18.76
29701;BMP280;57917;51.380;-0.176;2023-10-09T21:47:26;101760.91;;;18.67
29701;BMP280;57917;51.380;-0.176;2023-10-09T21:53:24;101759.47;;;18.61
29701;BMP280;57917;51.380;-0.176;2023-10-09T21:59:16;101753.16;;;18.57
29701;BMP280;57917;51.380;-0.176;2023-10-09T22:05:08;101741.25;;;18.49
29701;BMP280;57917;51.380;-0.176;2023-10-09T22:11:02;101739.59;;;18.40
29701;BMP280;57917;51.380;-0.176;2023-10-09T22:16:50;101733.59;;;18.34
29701;BMP280;57917;51.380;-0.176;2023-10-09T22:22:37;101741.34;;;18.22
29701;BMP280;57917;51.380;-0.176;2023-10-09T22:28:34;101740.97;;;18.15
29701;BMP280;57917;51.380;-0.176;2023-10-09T22:34:21;101733.97;;;18.06
29701;BMP280;57917;51.380;-0.176;2023-10-09T22:40:08;101727.53;;;17.93
29701;BMP280;57917;51.380;-0.176;2023-10-09T22:46:09;101724.38;;;17.91
29701;BMP280;57917;51.380;-0.176;2023-10-09T22:52:03;101722.97;;;17.94
29701;BMP280;57917;51.380;-0.176;2023-10-09T22:57:58;101713.59;;;18.05
29701;BMP280;57917;51.380;-0.176;2023-10-09T23:03:45;101715.31;;;18.01
29701;BMP280;57917;51.380;-0.176;2023-10-09T23:09:53;101715.56;;;18.13
29701;BMP280;57917;51.380;-0.176;2023-10-09T23:15:41;101705.53;;;18.18
29701;BMP280;57917;51.380;-0.176;2023-10-09T23:21:36;101701.25;;;18.17
29701;BMP280;57917;51.380;-0.176;2023-10-09T23:27:41;101704.00;;;18.04
29701;BMP280;57917;51.380;-0.176;2023-10-09T23:33:31;101697.41;;;17.88
29701;BMP280;57917;51.380;-0.176;2023-10-09T23:39:19;101694.53;;;17.71
29701;BMP280;57917;51.380;-0.176;2023-10-09T23:45:25;101697.94;;;17.49
29701;BMP280;57917;51.380;-0.176;2023-10-09T23:51:18;101697.72;;;17.59
29701;BMP280;57917;51.380;-0.176;2023-10-09T23:57:10;101687.03;;;17.59
